Time;durP1;ratioP1;P1;durP2;ratioP2;P2;SDS_P1;SDS_P2;PMS_P1;PMS_P2;Temp;Humidity;BMP_temperature;BMP_pressure;BME280_temperature;BME280_humidity;BME280_pressure;Samples;Min_cycle;Max_cycle;Signal;HPM_P1;HPM_P2
2024/03/15 00:01:19;;;;;;;;;;;;;;;;;;5007552;28;90254;-74
2024/03/15 00:03:45;;;;;;;;;;;;;;;;;;5007756;28;89728;-74
2024/03/15 00:06:13;;;;;;;;;;;;;;;;;;5010761;28;89755;-75
2024/03/15 00:08:39;;;;;;;;;;;;;;;;;;5010893;28;89658;-75
2024/03/15 00:11:04;;;;;;;;;;;;;;;;;;5011412;28;89790;-74
2024/03/15 00:13:29;;;;;;;;;;;;;;;;;;5011645;28;89774;-75
2024/03/15 00:15:55;;;;;;;;;;;;;;;;;;5010539;28;89789;-75
2024/03/15 00:18:20;;;;;;;;;;;;;;;;;;5000269;28;89474;-75
2024/03/15 00:20:45;;;;;;;;;;;;;;;;;;5004628;28;89377;-74
2024/03/15 00:23:11;;;;;;;;;;;;;;;;;;5006206;28;89461;-73
2024/03/15 00:25:36;;;;;;;;;;;;;;;;;;4990498;28;89667;-74
2024/03/15 00:28:02;;;;;;;;;;;;;;;;;;4991201;28;90008;-74
2024/03/15 00:30:27;;;;;;;;;;;;;;;;;;4991303;28;88990;-75
2024/03/15 00:32:52;;;;;;;;;;;;;;;;;;4991982;28;90213;-74
2024/03/15 00:35:19;;;;;;;;;;;;;;;;;;4990929;28;89256;-74
2024/03/15 00:37:45;;;;;;;;;;;;;;;;;;4990457;28;89780;-74
2024/03/15 00:40:11;;;;;;;;;;;;;;;;;;4993800;28;90069;-74
2024/03/15 00:42:37;;;;;;;;;;;;;;;;;;5006219;28;89470;-74
2024/03/15 00:45:02;;;;;;;;;;;;;;;;;;4990022;28;90569;-74
2024/03/15 00:47:28;;;;;;;;;;;;;;;;;;4990792;28;89482;-74
2024/03/15 00:49:53;;;;;;;;;;;;;;;;;;4990740;28;89299;-74
2024/03/15 00:52:19;;;;;;;;;;;;;;;;;;4990112;28;89115;-74
2024/03/15 00:54:45;;;;;;;;;;;;;;;;;;5013203;28;89302;-74
2024/03/15 00:57:11;;;;;;;;;;;;;;;;;;5010028;28;89116;-75
2024/03/15 00:59:36;;;;;;;;;;;;;;;;;;5010429;28;90358;-75
2024/03/15 01:02:01;;;;;;;;;;;;;;;;;;5013503;28;89450;-75
2024/03/15 01:04:29;;;;;;;;;;;;;;;;;;5010629;28;89751;-75
2024/03/15 01:06:54;;;;;;;;;;;;;;;;;;5011431;28;89170;-74
2024/03/15 01:09:20;;;;;;;;;;;;;;;;;;5010799;28;88969;-74
2024/03/15 01:11:46;;;;;;;;;;;;;;;;;;5009466;28;92251;-75
2024/03/15 01:14:11;;;;;;;;;;;;;;;;;;5009990;28;89348;-75
2024/03/15 01:16:37;;;;;;;;;;;;;;;;;;5009893;28;88965;-74
2024/03/15 01:19:04;;;;;;;;;;;;;;;;;;5014981;28;89683;-75
2024/03/15 01:21:29;;;;;;;;;;;;;;;;;;5030347;27;89269;-74
2024/03/15 01:23:54;;;;;;;;;;;;;;;;;;5033541;28;89125;-75
2024/03/15 01:26:20;;;;;;;;;;;;;;;;;;5025316;28;89181;-74
2024/03/15 01:28:45;;;;;;;;;;;;;;;;;;4996524;28;89075;-74
2024/03/15 01:31:10;;;;;;;;;;;;;;;;;;5001607;28;89750;-74
2024/03/15 01:33:35;;;;;;;;;;;;;;;;;;4989865;28;89435;-75
2024/03/15 01:36:01;;;;;;;;;;;;;;;;;;4989433;28;89564;-75
2024/03/15 01:38:26;;;;;;;;;;;;;;;;;;4989248;28;89610;-75
2024/03/15 01:40:52;;;;;;;;;;;;;;;;;;4989776;28;89225;-74
2024/03/15 01:43:17;;;;;;;;;;;;;;;;;;4989465;28;89016;-74
2024/03/15 01:45:42;;;;;;;;;;;;;;;;;;4992243;28;89665;-75
2024/03/15 01:48:08;;;;;;;;;;;;;;;;;;4989627;28;89386;-74
2024/03/15 01:50:34;;;;;;;;;;;;;;;;;;4989426;28;90672;-74
2024/03/15 01:53:00;;;;;;;;;;;;;;;;;;5007880;28;89407;-75
2024/03/15 01:55:25;;;;;;;;;;;;;;;;;;5009981;28;89125;-74
2024/03/15 01:57:50;;;;;;;;;;;;;;;;;;5009288;28;89739;-74
2024/03/15 02:00:16;;;;;;;;;;;;;;;;;;5009132;28;89451;-74
2024/03/15 02:02:41;;;;;;;;;;;;;;;;;;5009929;28;89963;-75
2024/03/15 02:05:06;;;;;;;;;;;;;;;;;;5010515;28;90449;-75
2024/03/15 02:07:32;;;;;;;;;;;;;;;;;;5013259;28;89497;-75
2024/03/15 02:09:58;;;;;;;;;;;;;;;;;;5009980;28;89831;-76
2024/03/15 02:12:24;;;;;;;;;;;;;;;;;;5010182;28;89264;-74
2024/03/15 02:14:49;;;;;;;;;;;;;;;;;;5010322;28;89211;-74
2024/03/15 02:17:15;;;;;;;;;;;;;;;;;;5009033;28;92162;-74
2024/03/15 02:19:40;;;;;;;;;;;;;;;;;;5010183;28;89258;-73
2024/03/15 02:22:06;;;;;;;;;;;;;;;;;;5010520;28;89072;-74
2024/03/15 02:24:31;;;;;;;;;;;;;;;;;;5010149;28;89691;-75
2024/03/15 02:26:56;;;;;;;;;;;;;;;;;;5011945;28;89189;-75
2024/03/15 02:29:22;;;;;;;;;;;;;;;;;;5009841;28;90281;-73
2024/03/15 02:31:47;;;;;;;;;;;;;;;;;;5008010;28;92359;-75
2024/03/15 02:34:13;;;;;;;;;;;;;;;;;;5010152;28;89078;-75
2024/03/15 02:36:40;;;;;;;;;;;;;;;;;;5009935;28;89755;-73
2024/03/15 02:39:06;;;;;;;;;;;;;;;;;;5009443;28;89877;-74
2024/03/15 02:41:33;;;;;;;;;;;;;;;;;;5009813;28;90306;-75
2024/03/15 02:43:59;;;;;;;;;;;;;;;;;;5008434;28;92377;-74
2024/03/15 02:46:25;;;;;;;;;;;;;;;;;;5009413;28;89276;-74
2024/03/15 02:48:50;;;;;;;;;;;;;;;;;;5012181;28;89563;-74
2024/03/15 02:51:16;;;;;;;;;;;;;;;;;;5008936;28;89462;-75
2024/03/15 02:53:41;;;;;;;;;;;;;;;;;;5007778;28;89255;-74
2024/03/15 02:56:06;;;;;;;;;;;;;;;;;;5007906;28;92741;-75
2024/03/15 02:58:31;;;;;;;;;;;;;;;;;;5009007;28;89626;-75
2024/03/15 03:00:56;;;;;;;;;;;;;;;;;;5009350;28;89639;-75
2024/03/15 03:03:22;;;;;;;;;;;;;;;;;;5008119;28;93041;-74
2024/03/15 03:05:47;;;;;;;;;;;;;;;;;;5008686;28;90026;-74
2024/03/15 03:08:14;;;;;;;;;;;;;;;;;;5009961;28;89756;-75
2024/03/15 03:10:40;;;;;;;;;;;;;;;;;;5012535;28;90129;-74
2024/03/15 03:13:05;;;;;;;;;;;;;;;;;;5009040;28;89214;-74
2024/03/15 03:15:30;;;;;;;;;;;;;;;;;;5007760;28;89621;-74
2024/03/15 03:17:59;;;;;;;;;;;;;;;;;;5008039;28;89537;-74
2024/03/15 03:20:24;;;;;;;;;;;;;;;;;;5007373;28;89142;-75
2024/03/15 03:22:51;;;;;;;;;;;;;;;;;;5008421;28;89682;-75
2024/03/15 03:25:16;;;;;;;;;;;;;;;;;;5006330;28;89247;-74
2024/03/15 03:27:42;;;;;;;;;;;;;;;;;;5006742;28;89442;-74
2024/03/15 03:30:07;;;;;;;;;;;;;;;;;;5025718;27;90174;-74
2024/03/15 03:32:33;;;;;;;;;;;;;;;;;;5031152;28;90116;-74
2024/03/15 03:34:58;;;;;;;;;;;;;;;;;;5028619;27;89769;-75
2024/03/15 03:37:23;;;;;;;;;;;;;;;;;;4996876;28;91100;-74
2024/03/15 03:39:48;;;;;;;;;;;;;;;;;;5004289;28;89716;-74
2024/03/15 03:42:14;;;;;;;;;;;;;;;;;;4987818;28;89739;-75
2024/03/15 03:44:41;;;;;;;;;;;;;;;;;;4988036;28;89574;-74
2024/03/15 03:47:06;;;;;;;;;;;;;;;;;;4989084;28;89037;-74
2024/03/15 03:49:31;;;;;;;;;;;;;;;;;;5006296;28;92481;-74
2024/03/15 03:51:59;;;;;;;;;;;;;;;;;;5008719;28;89187;-74
2024/03/15 03:54:24;;;;;;;;;;;;;;;;;;5009233;28;89329;-74
2024/03/15 03:56:50;;;;;;;;;;;;;;;;;;5008004;28;89959;-74
2024/03/15 03:59:15;;;;;;;;;;;;;;;;;;5008105;28;89618;-74
2024/03/15 04:01:41;;;;;;;;;;;;;;;;;;5007693;28;90101;-74
2024/03/15 04:04:06;;;;;;;;;;;;;;;;;;5006327;28;90997;-73
2024/03/15 04:06:31;;;;;;;;;;;;;;;;;;5007563;28;89091;-75
2024/03/15 04:08:57;;;;;;;;;;;;;;;;;;5006147;28;90869;-74
2024/03/15 04:11:22;;;;;;;;;;;;;;;;;;5005960;28;91793;-74
2024/03/15 04:13:47;;;;;;;;;;;;;;;;;;5008107;28;89753;-74
2024/03/15 04:16:14;;;;;;;;;;;;;;;;;;5010525;28;89696;-76
2024/03/15 04:18:40;;;;;;;;;;;;;;;;;;5007804;28;89362;-73
2024/03/15 04:21:05;;;;;;;;;;;;;;;;;;5008234;28;89707;-75
2024/03/15 04:23:31;;;;;;;;;;;;;;;;;;5007074;28;90167;-75
2024/03/15 04:25:57;;;;;;;;;;;;;;;;;;5009876;28;89071;-75
2024/03/15 04:28:24;;;;;;;;;;;;;;;;;;5012621;28;92099;-75
2024/03/15 04:30:50;;;;;;;;;;;;;;;;;;5011594;28;91940;-75
2024/03/15 04:33:15;;;;;;;;;;;;;;;;;;5016837;28;89392;-74
2024/03/15 04:35:40;;;;;;;;;;;;;;;;;;5027478;28;89748;-74
2024/03/15 04:38:06;;;;;;;;;;;;;;;;;;5020854;28;89156;-73
2024/03/15 04:40:31;;;;;;;;;;;;;;;;;;5011475;28;92280;-74
2024/03/15 04:42:56;;;;;;;;;;;;;;;;;;5015055;27;89851;-74
2024/03/15 04:45:22;;;;;;;;;;;;;;;;;;5022865;28;89133;-75
2024/03/15 04:47:48;;;;;;;;;;;;;;;;;;5013112;28;90873;-74
2024/03/15 04:50:15;;;;;;;;;;;;;;;;;;5014731;27;90312;-75
2024/03/15 04:52:41;;;;;;;;;;;;;;;;;;5020678;27;89496;-75
2024/03/15 04:55:09;;;;;;;;;;;;;;;;;;5023146;28;92813;-75
2024/03/15 04:57:36;;;;;;;;;;;;;;;;;;5023322;28;89549;-74
2024/03/15 05:00:08;;;;;;;;;;;;;;;;;;5020483;27;89764;-75
2024/03/15 05:02:34;;;;;;;;;;;;;;;;;;5026226;27;90408;-75
2024/03/15 05:04:59;;;;;;;;;;;;;;;;;;5016548;28;90344;-74
2024/03/15 05:07:24;;;;;;;;;;;;;;;;;;5020613;28;90441;-74
2024/03/15 05:09:50;;;;;;;;;;;;;;;;;;5013839;27;89626;-74
2024/03/15 05:12:16;;;;;;;;;;;;;;;;;;5015773;28;89648;-74
2024/03/15 05:14:41;;;;;;;;;;;;;;;;;;5016634;28;89480;-75
2024/03/15 05:17:07;;;;;;;;;;;;;;;;;;5017932;28;90168;-74
2024/03/15 05:19:32;;;;;;;;;;;;;;;;;;5023569;28;89210;-74
2024/03/15 05:21:58;;;;;;;;;;;;;;;;;;5019036;28;89885;-74
2024/03/15 05:24:24;;;;;;;;;;;;;;;;;;5020770;28;89109;-74
2024/03/15 05:26:49;;;;;;;;;;;;;;;;;;5026670;28;90072;-74
2024/03/15 05:29:14;;;;;;;;;;;;;;;;;;5019266;28;89384;-75
2024/03/15 05:31:40;;;;;;;;;;;;;;;;;;5018527;28;88991;-74
2024/03/15 05:34:07;;;;;;;;;;;;;;;;;;5018305;28;89059;-74
2024/03/15 05:36:33;;;;;;;;;;;;;;;;;;5025871;27;90429;-74
2024/03/15 05:38:59;;;;;;;;;;;;;;;;;;5017064;27;90072;-74
2024/03/15 05:41:24;;;;;;;;;;;;;;;;;;5020317;28;92163;-75
2024/03/15 05:43:49;;;;;;;;;;;;;;;;;;5020052;27;89319;-75
2024/03/15 05:46:15;;;;;;;;;;;;;;;;;;5015359;28;89802;-75
2024/03/15 05:48:40;;;;;;;;;;;;;;;;;;5019757;28;89033;-75
2024/03/15 05:51:05;;;;;;;;;;;;;;;;;;5014420;28;89437;-75
2024/03/15 05:53:30;;;;;;;;;;;;;;;;;;5025438;28;89967;-74
2024/03/15 05:55:56;;;;;;;;;;;;;;;;;;5020611;27;89702;-74
2024/03/15 05:58:21;;;;;;;;;;;;;;;;;;5018542;28;88969;-74
2024/03/15 06:00:47;;;;;;;;;;;;;;;;;;5018735;28;90522;-74
2024/03/15 06:03:12;;;;;;;;;;;;;;;;;;5019822;28;89238;-74
2024/03/15 06:05:37;;;;;;;;;;;;;;;;;;5016560;28;89729;-74
2024/03/15 06:08:03;;;;;;;;;;;;;;;;;;5017259;28;89660;-74
2024/03/15 06:10:29;;;;;;;;;;;;;;;;;;5010437;28;90504;-74
2024/03/15 06:12:57;;;;;;;;;;;;;;;;;;5007188;28;90024;-74
2024/03/15 06:15:23;;;;;;;;;;;;;;;;;;5005510;28;92167;-74
2024/03/15 06:17:48;;;;;;;;;;;;;;;;;;5012828;27;89753;-75
2024/03/15 06:20:13;;;;;;;;;;;;;;;;;;5010315;28;89810;-75
2024/03/15 06:22:38;;;;;;;;;;;;;;;;;;5019021;28;91441;-74
2024/03/15 06:25:05;;;;;;;;;;;;;;;;;;5021304;28;89629;-75
2024/03/15 06:27:31;;;;;;;;;;;;;;;;;;5018865;28;89625;-75
2024/03/15 06:29:56;;;;;;;;;;;;;;;;;;5017908;27;89041;-75
2024/03/15 06:32:26;;;;;;;;;;;;;;;;;;5051356;27;90901;-76
2024/03/15 06:34:57;;;;;;;;;;;;;;;;;;5018443;27;89193;-76
2024/03/15 06:37:23;;;;;;;;;;;;;;;;;;5014181;28;88962;-78
2024/03/15 06:42:24;;;;;;;;;;;;;;;;;;5006953;28;89185;-73
2024/03/15 06:45:08;;;;;;;;;;;;;;;;;;5021824;28;89454;-73
2024/03/15 06:47:33;;;;;;;;;;;;;;;;;;5013418;27;89512;-73
2024/03/15 06:52:39;;;;;;;;;;;;;;;;;;5022095;28;89436;-74
2024/03/15 06:55:06;;;;;;;;;;;;;;;;;;5017120;27;89840;-74
2024/03/15 06:57:32;;;;;;;;;;;;;;;;;;5014780;28;89616;-74
2024/03/15 06:59:58;;;;;;;;;;;;;;;;;;5014024;28;90018;-74
2024/03/15 07:02:23;;;;;;;;;;;;;;;;;;5019705;28;90001;-73
2024/03/15 07:04:50;;;;;;;;;;;;;;;;;;5013339;27;89170;-74
2024/03/15 07:07:16;;;;;;;;;;;;;;;;;;5012342;28;89747;-74
2024/03/15 07:09:41;;;;;;;;;;;;;;;;;;5008346;28;89603;-74
2024/03/15 07:12:06;;;;;;;;;;;;;;;;;;5012792;28;89596;-73
2024/03/15 07:14:32;;;;;;;;;;;;;;;;;;5007227;28;90509;-73
2024/03/15 07:16:57;;;;;;;;;;;;;;;;;;5014144;28;90265;-74
2024/03/15 07:19:23;;;;;;;;;;;;;;;;;;5015237;28;89794;-75
2024/03/15 07:21:48;;;;;;;;;;;;;;;;;;5016819;28;90198;-75
2024/03/15 07:24:13;;;;;;;;;;;;;;;;;;5020254;28;89934;-75
2024/03/15 07:26:39;;;;;;;;;;;;;;;;;;5014685;28;90348;-74
2024/03/15 07:29:04;;;;;;;;;;;;;;;;;;5017116;28;90096;-75
2024/03/15 07:31:30;;;;;;;;;;;;;;;;;;5017664;27;90369;-74
2024/03/15 07:33:56;;;;;;;;;;;;;;;;;;5015305;27;89383;-74
2024/03/15 07:36:24;;;;;;;;;;;;;;;;;;5012397;28;89442;-74
2024/03/15 07:38:51;;;;;;;;;;;;;;;;;;5009178;28;90105;-74
2024/03/15 07:41:17;;;;;;;;;;;;;;;;;;5008260;28;91795;-75
2024/03/15 07:43:42;;;;;;;;;;;;;;;;;;5016581;28;89461;-75
2024/03/15 07:46:09;;;;;;;;;;;;;;;;;;5012825;28;92297;-74
2024/03/15 07:48:34;;;;;;;;;;;;;;;;;;5011274;28;89156;-74
2024/03/15 07:51:00;;;;;;;;;;;;;;;;;;5018222;28;89307;-74
2024/03/15 07:53:25;;;;;;;;;;;;;;;;;;5021043;28;91151;-74
2024/03/15 07:55:50;;;;;;;;;;;;;;;;;;5017381;28;89542;-75
2024/03/15 07:58:16;;;;;;;;;;;;;;;;;;5011731;28;89752;-74
2024/03/15 08:00:43;;;;;;;;;;;;;;;;;;5016395;28;90033;-74
2024/03/15 08:03:08;;;;;;;;;;;;;;;;;;5016153;28;89102;-77
2024/03/15 08:05:33;;;;;;;;;;;;;;;;;;5015343;27;90391;-72
2024/03/15 08:07:59;;;;;;;;;;;;;;;;;;5016185;28;89855;-74
2024/03/15 08:10:24;;;;;;;;;;;;;;;;;;5014665;28;89328;-74
2024/03/15 08:12:50;;;;;;;;;;;;;;;;;;5014022;28;90916;-74
2024/03/15 08:15:15;;;;;;;;;;;;;;;;;;5011612;28;89462;-74
2024/03/15 08:17:42;;;;;;;;;;;;;;;;;;5013228;28;89826;-74
2024/03/15 08:20:10;;;;;;;;;;;;;;;;;;5019448;28;90123;-74
2024/03/15 08:22:39;;;;;;;;;;;;;;;;;;5016238;28;89126;-74
2024/03/15 08:25:06;;;;;;;;;;;;;;;;;;5020462;28;92376;-75
2024/03/15 08:27:31;;;;;;;;;;;;;;;;;;5020295;28;89104;-74
2024/03/15 08:29:56;;;;;;;;;;;;;;;;;;5022755;28;89429;-75
2024/03/15 08:32:22;;;;;;;;;;;;;;;;;;5021617;28;89903;-75
2024/03/15 08:34:48;;;;;;;;;;;;;;;;;;5017359;27;89935;-74
2024/03/15 08:37:14;;;;;;;;;;;;;;;;;;5025550;28;89619;-75
2024/03/15 08:39:39;;;;;;;;;;;;;;;;;;5017275;27;89698;-74
2024/03/15 08:42:04;;;;;;;;;;;;;;;;;;5020277;27;89410;-75
2024/03/15 08:44:32;;;;;;;;;;;;;;;;;;5019301;28;90215;-74
2024/03/15 08:46:57;;;;;;;;;;;;;;;;;;5018691;28;89977;-75
2024/03/15 08:49:26;;;;;;;;;;;;;;;;;;5027819;28;89564;-74
2024/03/15 08:51:51;;;;;;;;;;;;;;;;;;5001180;28;89783;-75
2024/03/15 08:54:18;;;;;;;;;;;;;;;;;;5024616;28;89357;-74
2024/03/15 08:56:44;;;;;;;;;;;;;;;;;;5019615;28;90169;-74
2024/03/15 08:59:10;;;;;;;;;;;;;;;;;;5015180;28;89702;-74
2024/03/15 09:01:35;;;;;;;;;;;;;;;;;;5026206;27;90434;-74
2024/03/15 09:04:10;;;;;;;;;;;;;;;;;;5016873;27;90836;-73
2024/03/15 09:06:36;;;;;;;;;;;;;;;;;;5016393;27;90284;-74
2024/03/15 09:09:07;;;;;;;;;;;;;;;;;;5024116;27;89509;-74
2024/03/15 09:11:32;;;;;;;;;;;;;;;;;;5018168;28;90683;-74
2024/03/15 09:13:57;;;;;;;;;;;;;;;;;;5017089;28;90939;-74
2024/03/15 09:16:23;;;;;;;;;;;;;;;;;;5016182;28;90090;-74
2024/03/15 09:18:48;;;;;;;;;;;;;;;;;;5046978;27;90081;-74
2024/03/15 09:21:13;;;;;;;;;;;;;;;;;;5009667;27;90735;-74
2024/03/15 09:23:38;;;;;;;;;;;;;;;;;;5020370;28;89738;-74
2024/03/15 09:26:06;;;;;;;;;;;;;;;;;;5012510;27;89279;-73
2024/03/15 09:28:37;;;;;;;;;;;;;;;;;;5015300;28;90863;-73
2024/03/15 09:31:08;;;;;;;;;;;;;;;;;;5013777;28;89615;-74
2024/03/15 09:33:34;;;;;;;;;;;;;;;;;;5019782;28;89672;-75
2024/03/15 09:36:04;;;;;;;;;;;;;;;;;;5018886;28;89116;-74
2024/03/15 09:38:29;;;;;;;;;;;;;;;;;;5021705;28;89763;-75
2024/03/15 09:41:00;;;;;;;;;;;;;;;;;;5016038;28;89384;-75
2024/03/15 09:43:29;;;;;;;;;;;;;;;;;;5018189;28;90493;-75
2024/03/15 09:45:56;;;;;;;;;;;;;;;;;;5006861;28;89710;-75
2024/03/15 09:48:23;;;;;;;;;;;;;;;;;;5020340;27;89649;-75
2024/03/15 09:50:52;;;;;;;;;;;;;;;;;;5017471;28;90209;-75
2024/03/15 09:53:17;;;;;;;;;;;;;;;;;;5023122;28;92252;-73
2024/03/15 09:55:43;;;;;;;;;;;;;;;;;;5021614;27;89957;-74
2024/03/15 09:58:10;;;;;;;;;;;;;;;;;;5015034;28;89740;-74
2024/03/15 10:00:37;;;;;;;;;;;;;;;;;;5018067;28;90455;-75
2024/03/15 10:03:04;;;;;;;;;;;;;;;;;;5013776;27;90198;-75
2024/03/15 10:05:29;;;;;;;;;;;;;;;;;;5017987;27;90362;-74
2024/03/15 10:07:55;;;;;;;;;;;;;;;;;;5017188;28;89006;-73
2024/03/15 10:10:20;;;;;;;;;;;;;;;;;;5016435;28;90238;-74
2024/03/15 10:12:47;;;;;;;;;;;;;;;;;;5016165;28;89434;-73
2024/03/15 10:15:13;;;;;;;;;;;;;;;;;;5019464;28;89585;-73
2024/03/15 10:17:39;;;;;;;;;;;;;;;;;;5017622;27;90102;-74
2024/03/15 10:20:14;;;;;;;;;;;;;;;;;;5017105;28;90589;-74
2024/03/15 10:22:40;;;;;;;;;;;;;;;;;;5022135;28;89562;-74
2024/03/15 10:25:11;;;;;;;;;;;;;;;;;;5022651;28;90159;-73
2024/03/15 10:27:38;;;;;;;;;;;;;;;;;;5020622;28;89579;-75
2024/03/15 10:30:12;;;;;;;;;;;;;;;;;;5021190;27;90867;-78
2024/03/15 10:32:37;;;;;;;;;;;;;;;;;;5013559;28;89086;-76
2024/03/15 10:35:04;;;;;;;;;;;;;;;;;;5010601;28;89926;-77
2024/03/15 10:37:30;;;;;;;;;;;;;;;;;;5020324;27;89716;-75
2024/03/15 10:39:55;;;;;;;;;;;;;;;;;;5020819;27;89266;-76
2024/03/15 10:42:23;;;;;;;;;;;;;;;;;;5010592;28;89934;-76
2024/03/15 10:44:49;;;;;;;;;;;;;;;;;;5014629;28;89292;-76
2024/03/15 10:47:16;;;;;;;;;;;;;;;;;;5006809;28;89292;-75
2024/03/15 10:49:42;;;;;;;;;;;;;;;;;;5007782;28;90164;-75
2024/03/15 10:52:11;;;;;;;;;;;;;;;;;;5000217;28;89818;-75
2024/03/15 10:54:36;;;;;;;;;;;;;;;;;;5008551;28;90160;-75
2024/03/15 10:57:02;;;;;;;;;;;;;;;;;;5006470;28;90152;-75
2024/03/15 10:59:27;;;;;;;;;;;;;;;;;;5003926;28;91965;-74
2024/03/15 11:01:53;;;;;;;;;;;;;;;;;;5011021;28;89829;-76
2024/03/15 11:04:18;;;;;;;;;;;;;;;;;;5016108;28;89994;-78
2024/03/15 11:06:44;;;;;;;;;;;;;;;;;;5018211;28;88995;-79
2024/03/15 11:09:19;;;;;;;;;;;;;;;;;;5015365;28;92698;-75
2024/03/15 11:11:54;;;;;;;;;;;;;;;;;;5022637;28;89420;-80
2024/03/15 11:14:21;;;;;;;;;;;;;;;;;;5024488;28;89114;-78
2024/03/15 11:16:55;;;;;;;;;;;;;;;;;;5023252;28;92401;-80
2024/03/15 11:19:20;;;;;;;;;;;;;;;;;;5015959;28;90328;-75
2024/03/15 11:21:45;;;;;;;;;;;;;;;;;;5021403;28;90167;-76
2024/03/15 11:24:13;;;;;;;;;;;;;;;;;;5012155;28;92421;-74
2024/03/15 11:26:38;;;;;;;;;;;;;;;;;;5007647;28;90243;-75
2024/03/15 11:29:08;;;;;;;;;;;;;;;;;;5009963;28;90415;-74
2024/03/15 11:31:33;;;;;;;;;;;;;;;;;;5017702;28;89714;-77
2024/03/15 11:34:00;;;;;;;;;;;;;;;;;;5023822;28;89064;-76
2024/03/15 11:36:26;;;;;;;;;;;;;;;;;;5020540;27;89728;-76
2024/03/15 11:38:51;;;;;;;;;;;;;;;;;;5016803;28;89904;-76
2024/03/15 11:41:17;;;;;;;;;;;;;;;;;;5014886;28;90525;-76
2024/03/15 11:43:42;;;;;;;;;;;;;;;;;;5016630;27;90306;-75
2024/03/15 11:46:08;;;;;;;;;;;;;;;;;;5019427;27;89817;-75
2024/03/15 11:48:33;;;;;;;;;;;;;;;;;;5018955;28;89859;-76
2024/03/15 11:51:01;;;;;;;;;;;;;;;;;;5016943;28;91900;-75
2024/03/15 11:53:26;;;;;;;;;;;;;;;;;;5025455;28;90198;-76
2024/03/15 11:55:52;;;;;;;;;;;;;;;;;;5022219;28;89708;-75
2024/03/15 11:58:18;;;;;;;;;;;;;;;;;;5019080;28;89772;-75
2024/03/15 12:00:51;;;;;;;;;;;;;;;;;;5021269;28;89073;-75
2024/03/15 12:03:17;;;;;;;;;;;;;;;;;;5021118;28;90507;-75
2024/03/15 12:05:43;;;;;;;;;;;;;;;;;;5018932;27;89639;-75
2024/03/15 12:08:15;;;;;;;;;;;;;;;;;;5020937;28;89737;-75
2024/03/15 12:10:43;;;;;;;;;;;;;;;;;;5025617;28;90778;-75
2024/03/15 12:13:15;;;;;;;;;;;;;;;;;;5022833;28;89623;-75
2024/03/15 12:15:41;;;;;;;;;;;;;;;;;;5019830;28;89766;-75
2024/03/15 12:18:12;;;;;;;;;;;;;;;;;;5022852;28;90326;-75
2024/03/15 12:20:37;;;;;;;;;;;;;;;;;;5018349;28;89025;-75
2024/03/15 12:23:04;;;;;;;;;;;;;;;;;;5018817;28;89979;-76
2024/03/15 12:25:29;;;;;;;;;;;;;;;;;;4999538;28;89926;-77
2024/03/15 12:27:54;;;;;;;;;;;;;;;;;;5017710;28;89847;-76
2024/03/15 12:30:19;;;;;;;;;;;;;;;;;;5015283;28;89811;-75
2024/03/15 12:32:45;;;;;;;;;;;;;;;;;;5024025;28;89439;-76
2024/03/15 12:35:10;;;;;;;;;;;;;;;;;;5015536;28;90397;-76
2024/03/15 12:37:35;;;;;;;;;;;;;;;;;;5017815;28;89398;-75
2024/03/15 12:40:00;;;;;;;;;;;;;;;;;;5018403;27;88984;-76
2024/03/15 12:42:26;;;;;;;;;;;;;;;;;;5018177;28;90181;-76
2024/03/15 12:44:51;;;;;;;;;;;;;;;;;;5018834;28;89470;-76
2024/03/15 12:47:17;;;;;;;;;;;;;;;;;;5019068;27;90482;-76
2024/03/15 12:49:42;;;;;;;;;;;;;;;;;;5026030;28;90123;-76
2024/03/15 12:52:10;;;;;;;;;;;;;;;;;;5021968;28;89593;-75
2024/03/15 12:54:36;;;;;;;;;;;;;;;;;;5024089;28;89705;-75
2024/03/15 12:57:04;;;;;;;;;;;;;;;;;;5011470;28;89353;-76
2024/03/15 12:59:30;;;;;;;;;;;;;;;;;;5019837;28;89438;-75
2024/03/15 13:01:56;;;;;;;;;;;;;;;;;;5017768;28;90183;-76
2024/03/15 13:04:21;;;;;;;;;;;;;;;;;;5013286;27;90143;-76
2024/03/15 13:06:47;;;;;;;;;;;;;;;;;;5023422;28;90323;-76
2024/03/15 13:09:12;;;;;;;;;;;;;;;;;;5020104;28;89978;-76
2024/03/15 13:11:37;;;;;;;;;;;;;;;;;;5013662;27;89516;-76
2024/03/15 13:14:03;;;;;;;;;;;;;;;;;;5020870;28;89720;-76
2024/03/15 13:16:28;;;;;;;;;;;;;;;;;;5016703;27;90183;-75
2024/03/15 13:18:53;;;;;;;;;;;;;;;;;;5012305;28;90182;-76
2024/03/15 13:21:19;;;;;;;;;;;;;;;;;;5014182;28;90486;-75
2024/03/15 13:23:44;;;;;;;;;;;;;;;;;;5013723;28;89281;-75
2024/03/15 13:26:13;;;;;;;;;;;;;;;;;;5022437;27;89758;-76
2024/03/15 13:28:38;;;;;;;;;;;;;;;;;;5028418;28;89723;-76
2024/03/15 13:31:04;;;;;;;;;;;;;;;;;;5022841;27;89622;-75
2024/03/15 13:33:31;;;;;;;;;;;;;;;;;;5017712;28;89202;-75
2024/03/15 13:35:57;;;;;;;;;;;;;;;;;;5018623;27;92348;-77
2024/03/15 13:38:22;;;;;;;;;;;;;;;;;;5011629;28;89905;-76
2024/03/15 13:40:50;;;;;;;;;;;;;;;;;;5020696;28;89842;-76
2024/03/15 13:43:17;;;;;;;;;;;;;;;;;;5016223;27;89653;-77
2024/03/15 13:45:42;;;;;;;;;;;;;;;;;;5016265;28;90030;-75
2024/03/15 13:48:38;;;;;;;;;;;;;;;;;;5016672;27;89762;-75
2024/03/15 13:51:04;;;;;;;;;;;;;;;;;;5017649;28;90232;-75
2024/03/15 13:53:30;;;;;;;;;;;;;;;;;;5018639;28;90257;-76
2024/03/15 13:55:57;;;;;;;;;;;;;;;;;;5017501;28;89765;-77
2024/03/15 13:58:22;;;;;;;;;;;;;;;;;;5019126;28;89939;-77
2024/03/15 14:00:50;;;;;;;;;;;;;;;;;;5009683;28;92691;-77
2024/03/15 14:03:16;;;;;;;;;;;;;;;;;;5013434;28;89296;-77
2024/03/15 14:05:41;;;;;;;;;;;;;;;;;;5013986;28;89164;-77
2024/03/15 14:08:09;;;;;;;;;;;;;;;;;;5017308;28;89782;-78
2024/03/15 14:10:34;;;;;;;;;;;;;;;;;;5014044;28;90383;-77
2024/03/15 14:13:00;;;;;;;;;;;;;;;;;;5015172;28;89722;-78
2024/03/15 14:15:26;;;;;;;;;;;;;;;;;;5017484;27;89040;-77
2024/03/15 14:17:51;;;;;;;;;;;;;;;;;;5017070;28;90196;-76
2024/03/15 14:20:16;;;;;;;;;;;;;;;;;;4999010;28;89352;-74
2024/03/15 14:22:44;;;;;;;;;;;;;;;;;;5014012;28;89920;-77
2024/03/15 14:25:16;;;;;;;;;;;;;;;;;;5009880;27;89536;-77
2024/03/15 14:27:43;;;;;;;;;;;;;;;;;;5018346;28;91167;-75
2024/03/15 14:30:09;;;;;;;;;;;;;;;;;;5016568;28;90339;-73
2024/03/15 14:32:34;;;;;;;;;;;;;;;;;;5017477;28;89648;-78
2024/03/15 14:35:00;;;;;;;;;;;;;;;;;;5017225;28;90834;-77
2024/03/15 14:37:28;;;;;;;;;;;;;;;;;;5011924;28;91852;-75
2024/03/15 14:39:53;;;;;;;;;;;;;;;;;;5011359;28;89503;-76
2024/03/15 14:42:18;;;;;;;;;;;;;;;;;;5004327;27;90078;-76
2024/03/15 14:44:44;;;;;;;;;;;;;;;;;;5005323;28;89662;-77
2024/03/15 14:47:10;;;;;;;;;;;;;;;;;;5009053;28;89754;-77
2024/03/15 14:49:36;;;;;;;;;;;;;;;;;;5009567;28;89682;-79
2024/03/15 14:52:02;;;;;;;;;;;;;;;;;;5007784;28;89399;-77
2024/03/15 14:54:27;;;;;;;;;;;;;;;;;;5010631;28;93099;-77
2024/03/15 14:56:52;;;;;;;;;;;;;;;;;;5024093;27;91088;-78
2024/03/15 14:59:17;;;;;;;;;;;;;;;;;;5032527;27;90652;-80
2024/03/15 15:01:43;;;;;;;;;;;;;;;;;;5016097;28;90729;-78
2024/03/15 15:04:08;;;;;;;;;;;;;;;;;;5011677;28;89758;-78
2024/03/15 15:06:33;;;;;;;;;;;;;;;;;;5014290;27;89718;-77
2024/03/15 15:08:59;;;;;;;;;;;;;;;;;;5016100;28;89442;-78
2024/03/15 15:11:24;;;;;;;;;;;;;;;;;;5013305;28;89676;-78
2024/03/15 15:13:52;;;;;;;;;;;;;;;;;;4997826;27;89614;-78
2024/03/15 15:16:17;;;;;;;;;;;;;;;;;;4967875;28;89713;-74
2024/03/15 15:18:42;;;;;;;;;;;;;;;;;;4975728;28;89052;-76
2024/03/15 15:21:07;;;;;;;;;;;;;;;;;;4976934;28;89759;-77
2024/03/15 15:23:32;;;;;;;;;;;;;;;;;;4984645;28;90051;-77
2024/03/15 15:25:59;;;;;;;;;;;;;;;;;;4972504;28;90059;-77
2024/03/15 15:28:24;;;;;;;;;;;;;;;;;;4979664;28;89673;-77
2024/03/15 15:30:50;;;;;;;;;;;;;;;;;;4974328;28;89460;-77
2024/03/15 15:33:15;;;;;;;;;;;;;;;;;;4975633;28;90107;-77
2024/03/15 15:35:45;;;;;;;;;;;;;;;;;;4974937;28;89832;-77
2024/03/15 15:38:13;;;;;;;;;;;;;;;;;;4971922;28;89083;-77
2024/03/15 15:40:39;;;;;;;;;;;;;;;;;;4973739;28;89782;-76
2024/03/15 15:43:04;;;;;;;;;;;;;;;;;;4974213;28;90884;-76
2024/03/15 15:45:33;;;;;;;;;;;;;;;;;;5012251;28;89393;-76
2024/03/15 15:47:58;;;;;;;;;;;;;;;;;;4979274;28;89628;-76
2024/03/15 15:50:24;;;;;;;;;;;;;;;;;;4977101;28;89731;-76
2024/03/15 15:52:49;;;;;;;;;;;;;;;;;;4978118;28;90278;-75
2024/03/15 15:55:15;;;;;;;;;;;;;;;;;;4978063;28;89687;-76
2024/03/15 15:57:40;;;;;;;;;;;;;;;;;;4983136;28;89352;-76
2024/03/15 16:00:25;;;;;;;;;;;;;;;;;;4976872;28;89793;-76
2024/03/15 16:02:50;;;;;;;;;;;;;;;;;;4970159;28;89622;-77
2024/03/15 16:05:16;;;;;;;;;;;;;;;;;;4975716;28;89452;-76
2024/03/15 16:07:41;;;;;;;;;;;;;;;;;;4978002;28;89824;-76
2024/03/15 16:10:07;;;;;;;;;;;;;;;;;;4977942;28;89747;-76
2024/03/15 16:12:32;;;;;;;;;;;;;;;;;;4976509;28;90925;-77
2024/03/15 16:14:58;;;;;;;;;;;;;;;;;;4976164;28;89985;-76
2024/03/15 16:17:24;;;;;;;;;;;;;;;;;;4973522;28;89474;-76
2024/03/15 16:19:49;;;;;;;;;;;;;;;;;;4983866;28;89800;-77
2024/03/15 16:22:15;;;;;;;;;;;;;;;;;;4973671;28;89778;-77
2024/03/15 16:24:40;;;;;;;;;;;;;;;;;;4984565;28;89617;-76
2024/03/15 16:27:05;;;;;;;;;;;;;;;;;;4975198;28;89712;-77
2024/03/15 16:29:31;;;;;;;;;;;;;;;;;;4986936;28;89472;-76
2024/03/15 16:31:58;;;;;;;;;;;;;;;;;;4974657;28;89925;-76
2024/03/15 16:34:23;;;;;;;;;;;;;;;;;;4973739;28;90984;-76
2024/03/15 16:36:48;;;;;;;;;;;;;;;;;;4976698;28;90760;-77
2024/03/15 16:39:17;;;;;;;;;;;;;;;;;;4972912;28;90547;-77
2024/03/15 16:41:43;;;;;;;;;;;;;;;;;;4980535;28;89683;-76
2024/03/15 16:44:08;;;;;;;;;;;;;;;;;;4964479;28;89838;-76